createdAt,value
2022-11-16T00:02:16.814Z,99115.27
2022-11-16T00:04:53.032Z,99110.34
2022-11-16T00:07:22.258Z,99108.34
2022-11-16T00:09:55.716Z,99106.12
2022-11-16T00:12:27.635Z,99102.18
2022-11-16T00:14:56.274Z,99096.73
2022-11-16T00:17:29.156Z,99094.77
2022-11-16T00:19:58.972Z,99090.61
2022-11-16T00:22:27.532Z,99093.92
2022-11-16T00:24:57.792Z,99097.55
2022-11-16T00:27:26.163Z,99098.40
2022-11-16T00:29:54.533Z,99096.45
2022-11-16T00:32:23.879Z,99092.73
2022-11-16T00:34:52.365Z,99091.99
2022-11-16T00:37:21.457Z,99089.51
2022-11-16T00:39:49.933Z,99089.96
2022-11-16T00:42:19.020Z,99087.64
2022-11-16T00:44:47.907Z,99080.79
2022-11-16T00:47:16.833Z,99078.07
2022-11-16T00:49:47.850Z,99075.33
2022-11-16T00:52:17.647Z,99078.52
2022-11-16T00:54:46.271Z,99079.98
2022-11-16T00:57:15.281Z,99085.48
2022-11-16T00:59:43.537Z,99086.96
2022-11-16T01:02:11.941Z,99090.30
2022-11-16T01:04:40.833Z,99087.29
2022-11-16T01:07:09.641Z,99079.97
2022-11-16T01:09:38.192Z,99078.03
2022-11-16T01:12:09.915Z,99073.89
2022-11-16T01:14:43.374Z,99071.43
2022-11-16T01:17:12.435Z,99060.55
2022-11-16T01:19:41.739Z,99063.55
2022-11-16T01:22:12.428Z,99061.52
2022-11-16T01:24:41.467Z,99064.73
2022-11-16T01:27:11.067Z,99067.25
2022-11-16T01:29:40.457Z,99069.52
2022-11-16T01:32:10.684Z,99069.66
2022-11-16T01:34:40.819Z,99072.66
2022-11-16T01:37:09.540Z,99068.29
2022-11-16T01:39:39.076Z,99068.38
2022-11-16T01:42:07.962Z,99068.23
2022-11-16T01:44:36.424Z,99067.89
2022-11-16T01:47:10.800Z,99064.29
2022-11-16T01:49:48.080Z,99063.93
2022-11-16T01:52:26.395Z,99060.65
2022-11-16T01:54:57.450Z,99062.19
2022-11-16T01:57:32.021Z,99062.36
2022-11-16T02:00:02.711Z,99062.88
2022-11-16T02:02:32.981Z,99059.73
2022-11-16T02:05:04.420Z,99057.98
2022-11-16T02:08:11.199Z,99056.05
2022-11-16T02:10:49.233Z,99052.91
2022-11-16T02:13:27.507Z,99046.88
2022-11-16T02:16:02.011Z,99041.63
2022-11-16T02:18:52.898Z,99037.92
2022-11-16T02:21:30.200Z,99033.10
2022-11-16T02:24:37.706Z,99034.95
2022-11-16T02:27:26.349Z,99029.95
2022-11-16T02:29:57.683Z,99023.14
2022-11-16T02:32:35.534Z,99014.87
2022-11-16T02:35:17.701Z,99013.64
2022-11-16T02:37:58.833Z,99018.20
2022-11-16T02:40:32.083Z,99010.77
2022-11-16T02:43:13.090Z,99001.54
2022-11-16T02:45:49.229Z,98997.69
2022-11-16T02:48:25.911Z,98995.02
2022-11-16T02:50:56.312Z,98990.42
2022-11-16T02:53:26.577Z,98986.42
2022-11-16T02:55:56.852Z,98983.52
2022-11-16T02:58:35.362Z,98977.94
2022-11-16T03:01:11.727Z,98968.86
2022-11-16T03:04:11.296Z,98969.31
2022-11-16T03:06:44.708Z,98963.79
2022-11-16T03:09:25.756Z,98960.99
2022-11-16T03:12:03.337Z,98960.14
2022-11-16T03:14:44.411Z,98954.38
2022-11-16T03:17:23.073Z,98954.11
2022-11-16T03:20:21.103Z,98956.02
2022-11-16T03:23:12.115Z,98954.33
2022-11-16T03:26:00.684Z,98962.66
2022-11-16T03:28:36.949Z,98961.20
2022-11-16T03:31:15.616Z,98963.40
2022-11-16T03:33:48.709Z,98962.91
2022-11-16T03:36:27.524Z,98963.61
2022-11-16T03:39:01.192Z,98962.02
2022-11-16T03:41:36.571Z,98960.33
2022-11-16T03:44:09.234Z,98954.61
2022-11-16T03:46:39.244Z,98955.64
2022-11-16T03:49:10.565Z,98951.80
2022-11-16T03:51:39.030Z,98952.41
2022-11-16T03:54:09.883Z,98952.98
2022-11-16T03:56:39.481Z,98951.98
2022-11-16T03:59:09.462Z,98952.04
2022-11-16T04:01:44.778Z,98946.54
2022-11-16T04:04:34.310Z,98946.42
2022-11-16T04:07:21.589Z,98948.63
2022-11-16T04:10:09.743Z,98942.42
2022-11-16T04:13:01.929Z,98941.73
2022-11-16T04:15:49.153Z,98943.58
2022-11-16T04:18:38.879Z,98942.69
2022-11-16T04:21:36.221Z,98943.98
2022-11-16T04:24:14.348Z,98945.74
2022-11-16T04:27:05.805Z,98944.39
2022-11-16T04:29:36.059Z,98941.40
2022-11-16T04:32:24.408Z,98942.13
2022-11-16T04:35:14.605Z,98942.55
2022-11-16T04:37:51.452Z,98936.09
2022-11-16T04:40:33.161Z,98937.84
2022-11-16T04:43:07.737Z,98937.92
2022-11-16T04:45:54.946Z,98940.40
2022-11-16T04:48:23.872Z,98942.21
2022-11-16T04:50:52.575Z,98940.50
2022-11-16T04:53:24.811Z,98937.43
2022-11-16T04:55:57.979Z,98933.79
2022-11-16T04:58:29.024Z,98927.21
2022-11-16T05:01:00.749Z,98924.64
2022-11-16T05:03:29.889Z,98917.90
2022-11-16T05:05:59.717Z,98919.51
2022-11-16T05:08:29.845Z,98915.89
2022-11-16T05:10:59.267Z,98919.81
2022-11-16T05:13:27.723Z,98919.05
2022-11-16T05:15:56.607Z,98908.95
2022-11-16T05:18:24.956Z,98910.67
2022-11-16T05:21:00.854Z,98904.77
2022-11-16T05:23:48.191Z,98904.36
2022-11-16T05:26:17.988Z,98908.55
2022-11-16T05:28:47.274Z,98913.57
2022-11-16T05:31:15.699Z,98913.58
2022-11-16T05:33:44.760Z,98918.79
2022-11-16T05:36:13.851Z,98915.48
2022-11-16T05:38:42.229Z,98918.58
2022-11-16T05:41:12.785Z,98921.65
2022-11-16T05:43:44.700Z,98916.93
2022-11-16T05:46:15.944Z,98915.02
2022-11-16T05:48:44.969Z,98908.54
2022-11-16T05:51:13.419Z,98902.64
2022-11-16T05:53:42.866Z,98907.03
2022-11-16T05:56:12.183Z,98910.27
2022-11-16T05:58:41.205Z,98908.76
2022-11-16T06:01:10.282Z,98909.61
2022-11-16T06:03:39.045Z,98913.42
2022-11-16T06:09:11.986Z,98918.77
2022-11-16T06:11:41.404Z,98917.99
2022-11-16T06:14:10.236Z,98918.97
2022-11-16T06:16:39.225Z,98920.14
2022-11-16T06:19:08.199Z,98926.86
2022-11-16T06:21:37.304Z,98926.42
2022-11-16T06:24:09.319Z,98926.52
2022-11-16T06:26:38.892Z,98925.81
2022-11-16T06:29:10.465Z,98926.02
2022-11-16T06:31:39.740Z,98921.07
2022-11-16T06:34:09.093Z,98925.64
2022-11-16T06:36:37.846Z,98924.34
2022-11-16T06:39:06.682Z,98922.59
2022-11-16T06:41:40.161Z,98925.26
2022-11-16T06:44:10.190Z,98925.11
2022-11-16T06:46:39.001Z,98926.74
2022-11-16T06:49:07.270Z,98923.21
2022-11-16T06:51:35.770Z,98925.33
2022-11-16T06:54:04.070Z,98922.75
2022-11-16T06:56:35.304Z,98922.46
2022-11-16T06:59:03.725Z,98923.83
2022-11-16T07:01:32.042Z,98918.73
2022-11-16T07:04:02.768Z,98916.09
2022-11-16T07:06:31.203Z,98910.44
2022-11-16T07:08:59.428Z,98919.11
2022-11-16T07:11:27.640Z,98919.54
2022-11-16T07:13:55.722Z,98917.26
2022-11-16T07:16:23.926Z,98919.23
2022-11-16T07:18:59.227Z,98921.81
2022-11-16T07:21:27.650Z,98917.96
2022-11-16T07:23:56.030Z,98916.58
2022-11-16T07:26:27.094Z,98917.89
2022-11-16T07:28:55.848Z,98919.92
2022-11-16T07:31:30.200Z,98925.01
2022-11-16T07:34:02.007Z,98921.39
2022-11-16T07:36:33.039Z,98926.43
2022-11-16T07:39:01.100Z,98925.57
2022-11-16T07:41:34.488Z,98931.42
2022-11-16T07:44:03.472Z,98940.91
2022-11-16T07:46:48.376Z,98944.87
2022-11-16T07:49:20.329Z,98946.66
2022-11-16T07:51:49.080Z,98947.36
2022-11-16T07:54:22.339Z,98942.67
2022-11-16T07:56:51.324Z,98945.82
2022-11-16T07:59:19.608Z,98942.59
2022-11-16T08:01:50.738Z,98944.34
2022-11-16T08:04:19.806Z,98944.40
2022-11-16T08:06:50.999Z,98949.34
2022-11-16T08:09:19.411Z,98950.66
2022-11-16T08:11:47.856Z,98951.70
2022-11-16T08:14:19.836Z,98949.79
2022-11-16T08:16:48.770Z,98950.76
2022-11-16T08:19:22.449Z,98951.23
2022-11-16T08:21:51.396Z,98953.86
2022-11-16T08:24:21.775Z,98962.30
2022-11-16T08:26:51.242Z,98964.27
2022-11-16T08:29:21.004Z,98966.50
2022-11-16T08:31:52.081Z,98960.45
2022-11-16T08:34:23.207Z,98961.88
2022-11-16T08:37:02.171Z,98961.17
2022-11-16T08:39:30.621Z,98959.65
2022-11-16T08:42:00.025Z,98962.20
2022-11-16T08:44:30.225Z,98963.78
2022-11-16T08:46:59.860Z,98967.66
2022-11-16T08:49:29.484Z,98965.14
2022-11-16T08:51:59.697Z,98964.30
2022-11-16T08:54:34.736Z,98962.30
2022-11-16T08:57:03.382Z,98963.80
2022-11-16T08:59:35.989Z,98964.10
2022-11-16T09:02:09.515Z,98966.28
2022-11-16T09:04:46.147Z,98964.36
2022-11-16T09:07:14.827Z,98965.85
2022-11-16T09:09:46.911Z,98964.94
2022-11-16T09:12:16.109Z,98968.70
2022-11-16T09:14:49.765Z,98969.91
2022-11-16T09:17:23.321Z,98966.27
2022-11-16T09:19:54.437Z,98969.35
2022-11-16T09:22:22.618Z,98968.66
2022-11-16T09:24:51.514Z,98968.76
2022-11-16T09:27:24.142Z,98969.99
2022-11-16T09:29:54.688Z,98971.48
2022-11-16T09:32:23.297Z,98974.11
2022-11-16T09:34:55.125Z,98974.23
2022-11-16T09:37:23.714Z,98968.73
2022-11-16T09:39:53.942Z,98968.31
2022-11-16T09:42:45.932Z,98965.91
2022-11-16T09:45:50.194Z,98965.14
2022-11-16T09:48:21.438Z,98956.31
2022-11-16T09:51:12.679Z,98952.70
2022-11-16T09:53:50.942Z,98950.52
2022-11-16T09:56:32.051Z,98952.84
2022-11-16T09:59:17.973Z,98950.15
2022-11-16T10:01:49.744Z,98945.87
2022-11-16T10:04:26.379Z,98944.53
2022-11-16T10:06:54.890Z,98937.16
2022-11-16T10:09:26.217Z,98934.69
2022-11-16T10:12:23.618Z,98932.20
2022-11-16T10:15:07.829Z,98932.39
2022-11-16T10:17:55.693Z,98929.31
2022-11-16T10:21:02.770Z,98923.89
2022-11-16T10:23:46.983Z,98920.27
2022-11-16T10:26:34.530Z,98912.84
2022-11-16T10:29:16.737Z,98910.60
2022-11-16T10:32:01.235Z,98911.23
2022-11-16T10:34:42.871Z,98912.80
2022-11-16T10:37:14.356Z,98914.84
2022-11-16T10:39:43.338Z,98910.54
2022-11-16T10:42:18.477Z,98909.34
2022-11-16T10:45:12.952Z,98915.54
2022-11-16T10:47:52.161Z,98909.05
2022-11-16T10:50:44.302Z,98908.92
2022-11-16T10:53:34.416Z,98902.04
2022-11-16T10:56:21.646Z,98895.73
2022-11-16T10:58:57.861Z,98891.17
2022-11-16T11:01:43.917Z,98887.75
2022-11-16T11:04:23.093Z,98880.42
2022-11-16T11:07:00.099Z,98887.05
2022-11-16T11:09:38.771Z,98877.44
2022-11-16T11:12:36.667Z,98875.69
2022-11-16T11:15:11.154Z,98870.58
2022-11-16T11:17:50.172Z,98868.92
2022-11-16T11:20:29.081Z,98866.55
2022-11-16T11:23:06.044Z,98862.30
2022-11-16T11:25:42.106Z,98862.59
2022-11-16T11:28:32.187Z,98858.41
2022-11-16T11:31:15.121Z,98856.79
2022-11-16T11:33:55.914Z,98856.05
2022-11-16T11:36:38.839Z,98846.63
2022-11-16T11:39:28.678Z,98838.55
2022-11-16T11:42:15.867Z,98839.91
2022-11-16T11:45:06.748Z,98839.88
2022-11-16T11:48:00.647Z,98838.82
2022-11-16T11:50:50.446Z,98836.56
2022-11-16T11:53:48.332Z,98843.56
2022-11-16T11:56:19.236Z,98839.63
2022-11-16T11:58:59.645Z,98840.82
2022-11-16T12:01:46.716Z,98838.19
2022-11-16T12:04:21.947Z,98835.39
2022-11-16T12:07:24.249Z,98832.79
2022-11-16T12:10:09.835Z,98827.27
2022-11-16T12:12:55.025Z,98825.02
2022-11-16T12:15:30.148Z,98819.27
2022-11-16T12:18:34.783Z,98819.09
2022-11-16T12:21:13.775Z,98819.20
2022-11-16T12:23:56.795Z,98819.49
2022-11-16T12:26:33.383Z,98822.79
2022-11-16T12:29:27.589Z,98824.54
2022-11-16T12:32:18.029Z,98824.46
2022-11-16T12:34:56.804Z,98827.46
2022-11-16T12:37:37.879Z,98828.88
2022-11-16T12:40:27.322Z,98830.67
2022-11-16T12:43:19.714Z,98828.73
2022-11-16T12:45:54.565Z,98829.15
2022-11-16T12:49:03.764Z,98830.95
2022-11-16T12:51:45.664Z,98837.07
2022-11-16T12:54:32.667Z,98839.64
2022-11-16T12:57:19.963Z,98839.78
2022-11-16T13:00:00.183Z,98836.69
2022-11-16T13:02:31.669Z,98846.48
2022-11-16T13:05:05.277Z,98847.33
2022-11-16T13:07:49.452Z,98850.41
2022-11-16T13:10:43.807Z,98849.16
2022-11-16T13:13:41.152Z,98845.17
2022-11-16T13:16:16.301Z,98844.40
2022-11-16T13:18:45.194Z,98845.65
2022-11-16T13:21:24.423Z,98840.89
2022-11-16T13:24:27.590Z,98841.06
2022-11-16T13:27:09.606Z,98835.58
2022-11-16T13:29:54.458Z,98839.89
2022-11-16T13:32:45.906Z,98837.15
2022-11-16T13:35:21.373Z,98840.60
2022-11-16T13:37:56.723Z,98838.29
2022-11-16T13:40:36.658Z,98835.39
2022-11-16T13:43:15.046Z,98835.90
2022-11-16T13:45:49.650Z,98835.23
2022-11-16T13:48:31.690Z,98833.10
2022-11-16T13:51:10.788Z,98836.04
2022-11-16T13:54:43.537Z,98830.75
2022-11-16T13:56:54.526Z,98831.98
2022-11-16T13:59:31.545Z,98832.66
2022-11-16T14:02:02.882Z,98831.63
2022-11-16T14:04:41.631Z,98830.23
2022-11-16T14:07:34.666Z,98825.66
2022-11-16T14:10:05.935Z,98824.05
2022-11-16T14:12:37.629Z,98820.43
2022-11-16T14:15:24.270Z,98812.92
2022-11-16T14:17:55.633Z,98809.86
2022-11-16T14:20:45.962Z,98808.79
2022-11-16T14:23:20.693Z,98810.58
2022-11-16T14:26:08.265Z,98805.05
2022-11-16T14:29:09.302Z,98808.65
2022-11-16T14:32:24.484Z,98804.70
2022-11-16T14:35:01.794Z,98803.55
2022-11-16T14:37:38.234Z,98797.41
2022-11-16T14:40:25.672Z,98798.60
2022-11-16T14:43:21.732Z,98801.98
2022-11-16T14:45:56.380Z,98804.69
2022-11-16T14:48:28.378Z,98801.44
2022-11-16T14:51:11.059Z,98794.34
2022-11-16T14:53:49.753Z,98797.11
2022-11-16T14:56:19.602Z,98797.23
2022-11-16T14:58:53.344Z,98798.71
2022-11-16T15:01:26.298Z,98802.30
2022-11-16T15:04:07.065Z,98801.98
2022-11-16T15:06:47.701Z,98805.16
2022-11-16T15:09:36.571Z,98806.25
2022-11-16T15:12:31.783Z,98803.36
2022-11-16T15:15:14.295Z,98801.61
2022-11-16T15:17:59.469Z,98805.61
2022-11-16T15:20:34.214Z,98802.79
2022-11-16T15:23:06.062Z,98808.45
2022-11-16T15:25:44.107Z,98804.05
2022-11-16T15:28:20.055Z,98804.90
2022-11-16T15:30:58.998Z,98801.77
2022-11-16T15:33:31.631Z,98805.36
2022-11-16T15:36:00.147Z,98800.39
2022-11-16T15:38:30.901Z,98802.16
2022-11-16T15:41:05.227Z,98803.42
2022-11-16T15:43:45.049Z,98803.19
2022-11-16T15:46:34.950Z,98804.67
2022-11-16T15:49:03.928Z,98805.80
2022-11-16T15:51:37.967Z,98806.52
2022-11-16T15:54:27.118Z,98808.17
2022-11-16T15:57:04.677Z,98807.55
2022-11-16T15:59:39.028Z,98807.73
2022-11-16T16:02:20.852Z,98805.26
2022-11-16T16:04:51.965Z,98808.63
2022-11-16T16:07:47.985Z,98809.58
2022-11-16T16:10:19.284Z,98812.09
2022-11-16T16:12:54.714Z,98814.56
2022-11-16T16:15:33.884Z,98817.38
2022-11-16T16:18:04.480Z,98814.34
2022-11-16T16:20:34.913Z,98817.83
2022-11-16T16:23:26.113Z,98817.98
2022-11-16T16:25:54.404Z,98816.09
2022-11-16T16:28:27.249Z,98817.91
2022-11-16T16:30:59.163Z,98807.85
2022-11-16T16:33:30.134Z,98806.59
2022-11-16T16:36:04.648Z,98805.13
2022-11-16T16:38:35.890Z,98812.98
2022-11-16T16:41:07.167Z,98813.38
2022-11-16T16:43:43.728Z,98812.39
2022-11-16T16:46:13.306Z,98814.04
2022-11-16T16:48:44.660Z,98818.18
2022-11-16T16:51:13.429Z,98815.95
2022-11-16T16:53:41.493Z,98817.80
2022-11-16T16:56:19.413Z,98816.90
2022-11-16T16:58:47.940Z,98814.71
2022-11-16T17:01:16.217Z,98816.85
2022-11-16T17:03:44.625Z,98813.13
2022-11-16T17:06:12.689Z,98812.94
2022-11-16T17:08:40.732Z,98814.39
2022-11-16T17:11:10.222Z,98815.96
2022-11-16T17:13:38.336Z,98812.70
2022-11-16T17:16:07.529Z,98816.46
2022-11-16T17:18:36.012Z,98816.84
2022-11-16T17:21:09.347Z,98819.98
2022-11-16T17:23:37.852Z,98820.30
2022-11-16T17:26:08.644Z,98819.39
2022-11-16T17:28:37.488Z,98822.99
2022-11-16T17:31:08.604Z,98822.98
2022-11-16T17:33:39.335Z,98821.40
2022-11-16T17:36:11.135Z,98822.02
2022-11-16T17:38:40.178Z,98819.67
2022-11-16T17:41:14.124Z,98819.31
2022-11-16T17:43:44.234Z,98818.38
2022-11-16T17:46:15.874Z,98816.91
2022-11-16T17:48:46.085Z,98819.55
2022-11-16T17:51:22.087Z,98821.04
2022-11-16T17:53:50.677Z,98822.80
2022-11-16T17:56:26.264Z,98823.28
2022-11-16T17:58:55.582Z,98824.95
2022-11-16T18:01:24.226Z,98820.66
2022-11-16T18:03:52.497Z,98819.78
2022-11-16T18:06:23.281Z,98818.75
2022-11-16T18:08:52.453Z,98822.29
2022-11-16T18:11:23.390Z,98823.31
2022-11-16T18:13:56.514Z,98823.42
2022-11-16T18:16:27.252Z,98819.48
2022-11-16T18:19:06.524Z,98819.80
2022-11-16T18:21:41.808Z,98821.66
2022-11-16T18:24:11.302Z,98820.33
2022-11-16T18:26:40.963Z,98821.19
2022-11-16T18:29:13.056Z,98825.09
2022-11-16T18:31:49.309Z,98820.80
2022-11-16T18:34:17.911Z,98824.35
2022-11-16T18:36:49.220Z,98820.95
2022-11-16T18:39:18.234Z,98819.08
2022-11-16T18:41:51.730Z,98816.84
2022-11-16T18:44:23.268Z,98816.63
2022-11-16T18:46:51.439Z,98815.07
2022-11-16T18:49:19.653Z,98814.19
2022-11-16T18:51:48.023Z,98814.34
2022-11-16T18:54:16.483Z,98813.59
2022-11-16T18:56:45.122Z,98813.76
2022-11-16T18:59:14.135Z,98818.34
2022-11-16T19:01:42.993Z,98814.55
2022-11-16T19:04:11.759Z,98818.25
2022-11-16T19:06:39.969Z,98822.42
2022-11-16T19:09:09.937Z,98820.27
2022-11-16T19:11:41.100Z,98818.30
2022-11-16T19:14:09.448Z,98820.25
2022-11-16T19:16:41.893Z,98819.95
2022-11-16T19:19:14.091Z,98823.16
2022-11-16T19:21:42.453Z,98822.65
2022-11-16T19:24:10.687Z,98821.77
2022-11-16T19:26:39.492Z,98817.65
2022-11-16T19:29:07.735Z,98819.61
2022-11-16T19:31:36.574Z,98818.83
2022-11-16T19:34:07.851Z,98820.80
2022-11-16T19:36:37.426Z,98821.45
2022-11-16T19:39:06.269Z,98823.88
2022-11-16T19:41:34.854Z,98822.52
2022-11-16T19:44:04.951Z,98831.80
2022-11-16T19:46:33.919Z,98831.48
2022-11-16T19:49:03.206Z,98833.17
2022-11-16T19:51:33.923Z,98832.69
2022-11-16T19:54:03.410Z,98830.16
2022-11-16T19:56:31.919Z,98832.89
2022-11-16T19:59:00.614Z,98830.33
2022-11-16T20:01:29.799Z,98829.08
2022-11-16T20:04:16.175Z,98834.83
2022-11-16T20:06:45.829Z,98833.17
2022-11-16T20:09:15.534Z,98834.09
2022-11-16T20:11:43.940Z,98828.95
2022-11-16T20:14:12.555Z,98833.66
2022-11-16T20:16:42.823Z,98827.38
2022-11-16T20:19:11.877Z,98824.81
2022-11-16T20:21:42.588Z,98824.61
2022-11-16T20:24:15.322Z,98823.77
2022-11-16T20:26:50.173Z,98822.71
2022-11-16T20:29:37.521Z,98825.05
2022-11-16T20:32:06.134Z,98824.61
2022-11-16T20:34:35.624Z,98820.84
2022-11-16T20:37:05.233Z,98822.66
2022-11-16T20:39:33.617Z,98816.78
2022-11-16T20:42:02.990Z,98813.34
2022-11-16T20:44:32.370Z,98818.51
2022-11-16T20:47:08.285Z,98822.54
2022-11-16T20:49:37.667Z,98831.10
2022-11-16T20:52:06.490Z,98836.35
2022-11-16T20:54:35.281Z,98839.65
2022-11-16T20:57:04.851Z,98840.88
2022-11-16T20:59:33.455Z,98838.87
2022-11-16T21:02:06.181Z,98844.96
2022-11-16T21:04:35.518Z,98844.66
2022-11-16T21:07:04.205Z,98841.30
2022-11-16T21:09:53.767Z,98841.10
2022-11-16T21:12:42.916Z,98833.65
2022-11-16T21:15:14.469Z,98837.72
2022-11-16T21:17:43.509Z,98836.27
2022-11-16T21:20:27.082Z,98839.23
2022-11-16T21:22:56.483Z,98838.86
2022-11-16T21:25:27.480Z,98835.04
2022-11-16T21:27:57.275Z,98836.90
2022-11-16T21:30:33.552Z,98833.17
2022-11-16T21:33:40.693Z,98838.36
2022-11-16T21:36:34.878Z,98840.34
2022-11-16T21:39:25.910Z,98844.48
2022-11-16T21:41:58.631Z,98840.77
2022-11-16T21:44:45.995Z,98838.02
2022-11-16T21:47:29.520Z,98839.73
2022-11-16T21:53:00.450Z,98842.54
2022-11-16T21:55:39.345Z,98843.96
2022-11-16T21:58:24.597Z,98851.10
2022-11-16T22:01:02.931Z,98850.26
2022-11-16T22:03:43.291Z,98849.24
2022-11-16T22:06:38.826Z,98850.39
2022-11-16T22:09:27.294Z,98848.14
2022-11-16T22:12:08.751Z,98851.52
2022-11-16T22:14:40.909Z,98852.81
2022-11-16T22:17:17.492Z,98856.67
2022-11-16T22:20:15.897Z,98858.29
2022-11-16T22:22:55.947Z,98860.89
2022-11-16T22:25:46.158Z,98858.23
2022-11-16T22:28:30.114Z,98854.54
2022-11-16T22:31:14.816Z,98855.52
2022-11-16T22:33:55.105Z,98855.80
2022-11-16T22:36:36.087Z,98855.89
2022-11-16T22:42:18.797Z,98846.78
2022-11-16T22:44:50.975Z,98846.62
2022-11-16T22:47:19.914Z,98850.23
2022-11-16T22:49:56.774Z,98854.21
2022-11-16T22:52:36.232Z,98855.96
2022-11-16T22:55:05.637Z,98862.51
2022-11-16T22:57:39.010Z,98862.85
2022-11-16T23:00:15.025Z,98861.17
2022-11-16T23:03:04.093Z,98863.96
2022-11-16T23:06:07.765Z,98866.20
2022-11-16T23:09:43.233Z,98856.55
2022-11-16T23:13:36.742Z,98853.42
2022-11-16T23:16:18.800Z,98854.98
2022-11-16T23:19:47.204Z,98848.52
2022-11-16T23:23:02.450Z,98846.60
2022-11-16T23:26:37.377Z,98844.23
2022-11-16T23:29:19.019Z,98841.48
2022-11-16T23:32:03.388Z,98842.52
2022-11-16T23:34:52.508Z,98847.05
2022-11-16T23:37:42.389Z,98845.64
2022-11-16T23:40:47.440Z,98841.30
2022-11-16T23:43:45.749Z,98836.21
2022-11-16T23:46:50.126Z,98833.80
2022-11-16T23:49:39.283Z,98831.65
2022-11-16T23:52:24.382Z,98831.96
2022-11-16T23:54:56.914Z,98832.31
2022-11-16T23:57:29.154Z,98830.41
